createdAt,value
2019-06-26T00:00:18.680Z,11.73
2019-06-26T00:02:47.176Z,12.18
2019-06-26T00:05:15.760Z,11.83
2019-06-26T00:07:44.306Z,11.25
2019-06-26T00:10:13.084Z,11.53
2019-06-26T00:12:41.511Z,11.18
2019-06-26T00:15:10.997Z,10.72
2019-06-26T00:17:39.421Z,10.80
2019-06-26T00:20:08.403Z,11.73
2019-06-26T00:22:36.863Z,10.95
2019-06-26T00:25:09.687Z,12.78
2019-06-26T00:27:38.127Z,12.40
2019-06-26T00:30:11.242Z,12.58
2019-06-26T00:32:39.735Z,9.75
2019-06-26T00:35:08.356Z,10.85
2019-06-26T00:37:36.782Z,10.70
2019-06-26T00:40:08.610Z,12.30
2019-06-26T00:42:37.036Z,10.68
2019-06-26T00:45:09.117Z,11.15
2019-06-26T00:47:37.559Z,11.73
2019-06-26T00:50:08.535Z,11.97
2019-06-26T00:52:37.048Z,11.83
2019-06-26T00:55:07.238Z,11.43
2019-06-26T00:57:35.800Z,11.35
2019-06-26T01:00:09.921Z,12.13
2019-06-26T01:02:38.462Z,11.12
2019-06-26T01:05:11.678Z,12.20
2019-06-26T01:07:40.328Z,10.35
2019-06-26T01:10:10.320Z,12.93
2019-06-26T01:12:38.816Z,12.35
2019-06-26T01:15:08.409Z,12.40
2019-06-26T01:17:36.846Z,12.23
2019-06-26T01:20:09.005Z,13.03
2019-06-26T01:22:37.461Z,12.98
2019-06-26T01:25:06.247Z,13.13
2019-06-26T01:27:34.664Z,13.10
2019-06-26T01:30:04.547Z,11.80
2019-06-26T01:32:32.991Z,13.03
2019-06-26T01:35:01.438Z,11.22
2019-06-26T01:37:29.954Z,11.57
2019-06-26T01:39:58.394Z,12.18
2019-06-26T01:42:26.818Z,12.10
2019-06-26T01:44:55.265Z,11.90
2019-06-26T01:47:23.691Z,14.28
2019-06-26T01:49:52.154Z,12.43
2019-06-26T01:52:20.576Z,13.68
2019-06-26T01:54:49.028Z,13.20
2019-06-26T01:57:17.448Z,13.05
2019-06-26T01:59:45.899Z,13.55
2019-06-26T02:02:14.375Z,13.15
2019-06-26T02:04:42.857Z,12.40
2019-06-26T02:07:11.285Z,12.53
2019-06-26T02:09:39.723Z,13.32
2019-06-26T02:12:08.162Z,13.50
2019-06-26T02:14:36.664Z,12.73
2019-06-26T02:17:05.131Z,13.30
2019-06-26T02:19:33.670Z,12.30
2019-06-26T02:22:02.100Z,13.35
2019-06-26T02:24:30.540Z,12.45
2019-06-26T02:26:58.965Z,15.03
2019-06-26T02:29:27.415Z,12.20
2019-06-26T02:31:55.913Z,12.58
2019-06-26T02:34:24.367Z,12.15
2019-06-26T02:36:52.798Z,12.03
2019-06-26T02:39:21.836Z,12.13
2019-06-26T02:41:50.255Z,12.20
2019-06-26T02:44:18.711Z,12.25
2019-06-26T02:46:47.147Z,12.75
2019-06-26T02:49:15.568Z,12.10
2019-06-26T02:51:44.018Z,12.45
2019-06-26T02:54:12.460Z,13.03
2019-06-26T02:56:40.888Z,12.60
2019-06-26T02:59:09.346Z,14.33
2019-06-26T03:01:37.847Z,13.48
2019-06-26T03:04:06.361Z,13.20
2019-06-26T03:06:34.804Z,13.45
2019-06-26T03:09:03.389Z,12.28
2019-06-26T03:11:31.852Z,12.10
2019-06-26T03:14:00.269Z,13.28
2019-06-26T03:16:28.710Z,12.85
2019-06-26T03:18:57.154Z,13.50
2019-06-26T03:21:25.607Z,15.38
2019-06-26T03:23:54.034Z,13.40
2019-06-26T03:26:22.485Z,15.98
2019-06-26T03:28:50.987Z,15.13
2019-06-26T03:31:19.505Z,14.98
2019-06-26T03:33:47.933Z,14.55
2019-06-26T03:39:45.413Z,13.35
2019-06-26T03:42:13.867Z,13.43
2019-06-26T03:44:42.323Z,12.80
2019-06-26T03:47:10.844Z,13.85
2019-06-26T03:49:39.296Z,14.05
2019-06-26T03:52:07.727Z,13.70
2019-06-26T03:54:36.174Z,13.15
2019-06-26T03:57:04.622Z,14.10
2019-06-26T03:59:33.036Z,18.85
2019-06-26T04:02:01.492Z,14.23
2019-06-26T04:04:29.910Z,13.93
2019-06-26T04:06:58.364Z,14.20
2019-06-26T04:09:26.827Z,14.43
2019-06-26T04:11:55.255Z,14.00
2019-06-26T04:14:23.722Z,15.15
2019-06-26T04:16:52.151Z,13.70
2019-06-26T04:19:20.598Z,14.03
2019-06-26T04:21:49.048Z,13.62
2019-06-26T04:24:17.487Z,14.38
2019-06-26T04:26:45.941Z,13.83
2019-06-26T04:29:14.364Z,13.60
2019-06-26T04:31:42.805Z,13.70
2019-06-26T04:34:11.292Z,13.20
2019-06-26T04:36:39.783Z,13.30
2019-06-26T04:39:08.928Z,14.03
2019-06-26T04:41:37.420Z,13.68
2019-06-26T04:44:05.904Z,15.58
2019-06-26T04:46:34.353Z,13.85
2019-06-26T04:49:02.787Z,13.40
2019-06-26T04:51:31.221Z,14.58
2019-06-26T04:53:59.657Z,14.90
2019-06-26T04:56:28.080Z,14.90
2019-06-26T04:58:56.523Z,16.90
2019-06-26T05:01:25.044Z,15.43
2019-06-26T05:03:53.465Z,15.00
2019-06-26T05:06:21.911Z,14.18
2019-06-26T05:08:50.366Z,13.38
2019-06-26T05:11:18.882Z,13.98
2019-06-26T05:13:47.387Z,13.88
2019-06-26T05:16:20.070Z,14.43
2019-06-26T05:18:46.021Z,14.05
2019-06-26T05:21:14.439Z,13.32
2019-06-26T05:23:42.907Z,15.13
2019-06-26T05:26:11.404Z,16.17
2019-06-26T05:28:39.827Z,16.97
2019-06-26T05:31:08.267Z,15.23
2019-06-26T05:33:36.730Z,17.15
2019-06-26T05:36:05.166Z,16.90
2019-06-26T05:38:33.608Z,16.42
2019-06-26T05:41:02.068Z,19.07
2019-06-26T05:43:30.502Z,17.07
2019-06-26T05:45:59.007Z,15.50
2019-06-26T05:48:27.428Z,16.32
2019-06-26T05:50:55.878Z,17.05
2019-06-26T05:53:24.308Z,16.77
2019-06-26T05:55:52.779Z,16.05
2019-06-26T05:58:21.230Z,16.95
2019-06-26T06:00:49.733Z,16.82
2019-06-26T06:03:18.183Z,16.37
2019-06-26T06:05:46.603Z,16.90
2019-06-26T06:08:15.061Z,16.00
2019-06-26T06:10:43.783Z,17.07
2019-06-26T06:13:12.313Z,16.97
2019-06-26T06:15:40.996Z,20.10
2019-06-26T06:18:09.449Z,15.43
2019-06-26T06:20:39.411Z,18.57
2019-06-26T06:23:08.597Z,19.70
2019-06-26T06:25:37.084Z,18.98
2019-06-26T06:28:05.611Z,19.57
2019-06-26T06:30:34.057Z,18.85
2019-06-26T06:33:02.614Z,19.32
2019-06-26T06:35:31.246Z,20.92
2019-06-26T06:37:59.703Z,18.10
2019-06-26T06:40:28.126Z,19.95
2019-06-26T06:42:56.594Z,23.75
2019-06-26T06:45:25.288Z,18.35
2019-06-26T06:47:54.111Z,20.85
2019-06-26T06:50:22.832Z,18.57
2019-06-26T06:52:51.339Z,19.52
2019-06-26T06:55:20.528Z,17.70
2019-06-26T06:57:48.951Z,18.02
2019-06-26T07:00:17.731Z,21.12
2019-06-26T07:02:46.187Z,19.82
2019-06-26T07:05:14.995Z,18.80
2019-06-26T07:07:43.423Z,21.48
2019-06-26T07:10:12.106Z,19.90
2019-06-26T07:12:40.524Z,19.67
2019-06-26T07:15:09.915Z,21.33
2019-06-26T07:17:38.351Z,23.62
2019-06-26T07:20:07.350Z,19.98
2019-06-26T07:22:35.832Z,17.25
2019-06-26T07:25:04.924Z,18.27
2019-06-26T07:27:33.356Z,20.68
2019-06-26T07:30:01.863Z,16.52
2019-06-26T07:32:30.350Z,19.25
2019-06-26T07:34:58.838Z,19.45
2019-06-26T07:37:27.288Z,20.57
2019-06-26T07:40:00.309Z,19.17
2019-06-26T07:42:25.888Z,18.90
2019-06-26T07:44:54.320Z,18.82
2019-06-26T07:47:28.222Z,19.37
2019-06-26T07:49:52.923Z,17.73
2019-06-26T07:52:21.467Z,18.40
2019-06-26T07:54:49.980Z,17.45
2019-06-26T07:57:18.406Z,17.30
2019-06-26T07:59:46.862Z,18.98
2019-06-26T08:02:15.303Z,18.10
2019-06-26T08:04:43.759Z,17.15
2019-06-26T08:07:12.204Z,16.87
2019-06-26T08:09:40.662Z,18.32
2019-06-26T08:12:09.248Z,16.73
2019-06-26T08:14:37.692Z,15.68
2019-06-26T08:17:06.092Z,16.62
2019-06-26T08:19:34.538Z,15.60
2019-06-26T08:22:02.995Z,16.93
2019-06-26T08:24:31.415Z,16.87
2019-06-26T08:26:59.937Z,13.62
2019-06-26T08:29:28.720Z,17.77
2019-06-26T08:31:57.185Z,18.35
2019-06-26T08:34:25.608Z,14.43
2019-06-26T08:36:54.062Z,17.23
2019-06-26T08:39:22.490Z,16.30
2019-06-26T08:41:50.943Z,15.00
2019-06-26T08:44:19.393Z,13.90
2019-06-26T08:46:47.844Z,14.45
2019-06-26T08:49:25.438Z,15.90
2019-06-26T08:51:46.442Z,14.93
2019-06-26T08:54:14.874Z,16.23
2019-06-26T08:56:43.393Z,14.55
2019-06-26T08:59:11.911Z,13.68
2019-06-26T09:01:40.336Z,16.52
2019-06-26T09:07:13.582Z,14.00
2019-06-26T09:09:42.031Z,15.70
2019-06-26T09:12:10.479Z,16.02
2019-06-26T09:14:38.895Z,15.98
2019-06-26T09:17:07.364Z,17.20
2019-06-26T09:19:35.779Z,15.95
2019-06-26T09:22:04.281Z,17.27
2019-06-26T09:24:32.731Z,14.20
2019-06-26T09:27:01.229Z,16.57
2019-06-26T09:29:29.675Z,15.63
2019-06-26T09:31:58.142Z,14.75
2019-06-26T09:34:26.575Z,14.95
2019-06-26T09:36:55.027Z,14.13
2019-06-26T09:39:24.023Z,14.80
2019-06-26T09:41:52.485Z,15.13
2019-06-26T09:44:20.907Z,14.65
2019-06-26T09:46:49.324Z,13.80
2019-06-26T09:49:17.770Z,16.30
2019-06-26T09:51:46.187Z,15.28
2019-06-26T09:54:14.649Z,14.70
2019-06-26T09:56:43.093Z,15.32
2019-06-26T09:59:11.584Z,14.93
2019-06-26T10:01:40.038Z,15.88
2019-06-26T10:04:08.496Z,16.32
2019-06-26T10:06:36.987Z,15.28
2019-06-26T10:09:07.856Z,15.95
2019-06-26T10:11:36.325Z,16.32
2019-06-26T10:14:05.415Z,13.83
2019-06-26T10:16:33.845Z,15.23
2019-06-26T10:19:10.321Z,15.38
2019-06-26T10:21:34.802Z,12.93
2019-06-26T10:24:03.235Z,17.20
2019-06-26T10:26:32.722Z,15.75
2019-06-26T10:29:01.504Z,14.00
2019-06-26T10:31:30.268Z,14.55
2019-06-26T10:33:59.078Z,15.85
2019-06-26T10:36:27.525Z,15.88
2019-06-26T10:38:55.955Z,14.05
2019-06-26T10:41:24.407Z,15.32
2019-06-26T10:43:52.841Z,13.58
2019-06-26T10:46:21.306Z,14.15
2019-06-26T10:48:49.744Z,13.75
2019-06-26T10:51:18.238Z,13.15
2019-06-26T10:53:46.683Z,15.53
2019-06-26T10:56:15.106Z,14.80
2019-06-26T10:58:43.552Z,14.03
2019-06-26T11:01:11.977Z,14.55
2019-06-26T11:03:40.504Z,14.55
2019-06-26T11:06:08.951Z,13.83
2019-06-26T11:08:37.376Z,14.47
2019-06-26T11:11:05.828Z,14.73
2019-06-26T11:13:34.270Z,14.15
2019-06-26T11:16:02.724Z,14.23
2019-06-26T11:18:31.255Z,15.53
2019-06-26T11:20:59.731Z,15.18
2019-06-26T11:23:28.163Z,15.10
2019-06-26T11:25:56.606Z,13.62
2019-06-26T11:28:25.020Z,15.60
2019-06-26T11:30:53.550Z,16.17
2019-06-26T11:33:22.036Z,14.70
2019-06-26T11:35:50.488Z,14.70
2019-06-26T11:38:18.999Z,21.87
2019-06-26T11:40:47.456Z,15.20
2019-06-26T11:43:15.962Z,16.35
2019-06-26T11:45:44.385Z,16.75
2019-06-26T11:48:12.867Z,16.42
2019-06-26T11:54:10.399Z,17.17
2019-06-26T11:56:38.844Z,19.32
2019-06-26T11:59:07.343Z,19.32
2019-06-26T12:01:35.857Z,18.50
2019-06-26T12:04:04.292Z,20.23
2019-06-26T12:06:32.782Z,22.35
2019-06-26T12:09:01.253Z,19.00
2019-06-26T12:11:29.705Z,21.85
2019-06-26T12:13:58.145Z,19.50
2019-06-26T12:16:26.587Z,18.07
2019-06-26T12:18:55.014Z,21.48
2019-06-26T12:21:24.305Z,17.27
2019-06-26T12:23:52.730Z,17.52
2019-06-26T12:26:21.190Z,20.35
2019-06-26T12:28:50.220Z,17.92
2019-06-26T12:31:18.803Z,17.05
2019-06-26T12:33:47.324Z,16.77
2019-06-26T12:36:15.786Z,16.80
2019-06-26T12:38:44.276Z,17.73
2019-06-26T12:41:12.735Z,17.00
2019-06-26T12:43:41.159Z,17.75
2019-06-26T12:46:09.615Z,15.60
2019-06-26T12:48:38.067Z,18.32
2019-06-26T12:51:06.527Z,18.32
2019-06-26T12:53:35.125Z,18.20
2019-06-26T12:56:03.554Z,16.17
2019-06-26T12:58:31.974Z,17.60
2019-06-26T13:01:00.415Z,14.90
2019-06-26T13:03:28.835Z,16.62
2019-06-26T13:05:57.352Z,17.05
2019-06-26T13:08:25.787Z,15.03
2019-06-26T13:10:54.299Z,14.13
2019-06-26T13:13:22.725Z,14.45
2019-06-26T13:15:51.469Z,13.55
2019-06-26T13:18:20.096Z,15.58
2019-06-26T13:23:53.215Z,11.73
2019-06-26T13:26:21.661Z,13.72
2019-06-26T13:28:50.109Z,12.35
2019-06-26T13:31:18.682Z,13.65
2019-06-26T13:33:47.240Z,12.88
2019-06-26T13:36:15.667Z,12.20
2019-06-26T13:38:44.115Z,13.53
2019-06-26T13:41:12.537Z,12.15
2019-06-26T13:43:40.979Z,12.60
2019-06-26T13:46:09.403Z,12.15
2019-06-26T13:48:37.857Z,11.73
2019-06-26T13:51:09.927Z,12.50
2019-06-26T13:53:37.082Z,12.80
2019-06-26T13:56:05.577Z,11.95
2019-06-26T13:58:34.051Z,14.73
2019-06-26T14:01:02.483Z,12.15
2019-06-26T14:03:30.920Z,11.03
2019-06-26T14:05:59.347Z,11.53
2019-06-26T14:08:27.795Z,10.32
2019-06-26T14:10:56.219Z,11.45
2019-06-26T14:13:24.651Z,13.13
2019-06-26T14:15:53.243Z,13.03
2019-06-26T14:18:21.713Z,13.22
2019-06-26T14:20:50.224Z,13.38
2019-06-26T14:23:18.670Z,14.63
2019-06-26T14:25:47.090Z,12.80
2019-06-26T14:28:15.548Z,15.15
2019-06-26T14:30:43.977Z,12.75
2019-06-26T14:33:12.395Z,12.50
2019-06-26T14:35:40.847Z,12.63
2019-06-26T14:38:09.280Z,13.43
2019-06-26T14:40:37.728Z,12.75
2019-06-26T14:43:06.149Z,13.03
2019-06-26T14:45:34.599Z,13.85
2019-06-26T14:48:03.058Z,16.40
2019-06-26T14:50:31.480Z,13.70
2019-06-26T14:52:59.954Z,16.45
2019-06-26T14:55:28.556Z,15.55
2019-06-26T14:57:57.028Z,16.02
2019-06-26T15:00:25.851Z,14.73
2019-06-26T15:02:54.277Z,16.07
2019-06-26T15:05:22.702Z,14.87
2019-06-26T15:07:51.153Z,14.70
2019-06-26T15:10:19.952Z,14.45
2019-06-26T15:12:48.832Z,14.15
2019-06-26T15:15:17.686Z,13.20
2019-06-26T15:17:46.161Z,15.32
2019-06-26T15:20:16.152Z,15.72
2019-06-26T15:22:44.608Z,11.90
2019-06-26T15:25:13.387Z,12.07
2019-06-26T15:27:41.815Z,12.23
2019-06-26T15:30:11.708Z,12.45
2019-06-26T15:32:40.160Z,13.58
2019-06-26T15:35:09.492Z,13.50
2019-06-26T15:37:37.954Z,14.50
2019-06-26T15:40:07.721Z,15.25
2019-06-26T15:42:36.183Z,11.38
2019-06-26T15:45:06.248Z,13.90
2019-06-26T15:47:34.692Z,13.90
2019-06-26T15:50:11.009Z,12.55
2019-06-26T15:52:39.614Z,11.95
2019-06-26T15:55:08.151Z,13.78
2019-06-26T15:57:36.703Z,12.43
2019-06-26T16:00:06.727Z,14.30
2019-06-26T16:02:36.755Z,13.05
2019-06-26T16:05:06.861Z,13.55
2019-06-26T16:07:35.300Z,12.47
2019-06-26T16:10:06.663Z,11.97
2019-06-26T16:12:35.088Z,11.78
2019-06-26T16:15:04.378Z,12.73
2019-06-26T16:17:37.044Z,11.48
2019-06-26T16:20:07.218Z,12.15
2019-06-26T16:22:35.734Z,13.72
2019-06-26T16:25:05.165Z,16.00
2019-06-26T16:27:33.588Z,13.43
2019-06-26T16:30:02.079Z,13.35
2019-06-26T16:32:30.532Z,14.60
2019-06-26T16:34:59.057Z,14.15
2019-06-26T16:37:27.514Z,14.15
2019-06-26T16:39:55.985Z,14.80
2019-06-26T16:42:24.429Z,13.30
2019-06-26T16:44:53.565Z,12.98
2019-06-26T16:47:22.073Z,13.48
2019-06-26T16:49:50.565Z,10.48
2019-06-26T16:52:19.010Z,11.33
2019-06-26T16:54:48.275Z,13.75
2019-06-26T16:57:16.718Z,11.60
2019-06-26T16:59:45.160Z,12.45
2019-06-26T17:02:13.616Z,11.88
2019-06-26T17:04:42.148Z,13.00
2019-06-26T17:07:10.677Z,13.62
2019-06-26T17:09:39.099Z,13.93
2019-06-26T17:12:07.568Z,11.53
2019-06-26T17:14:35.990Z,14.05
2019-06-26T17:17:04.579Z,14.75
2019-06-26T17:19:33.027Z,14.78
2019-06-26T17:22:01.449Z,13.45
2019-06-26T17:24:29.895Z,13.22
2019-06-26T17:26:59.558Z,12.95
2019-06-26T17:29:28.146Z,11.75
2019-06-26T17:31:56.576Z,13.18
2019-06-26T17:34:27.169Z,12.30
2019-06-26T17:36:55.191Z,14.13
2019-06-26T17:39:23.708Z,14.58
2019-06-26T17:41:52.144Z,12.85
2019-06-26T17:44:20.585Z,11.57
2019-06-26T17:46:49.029Z,12.18
2019-06-26T17:49:17.460Z,12.00
2019-06-26T17:51:45.909Z,13.35
2019-06-26T17:54:14.329Z,12.28
2019-06-26T17:56:42.781Z,14.95
2019-06-26T17:59:11.208Z,13.85
2019-06-26T18:01:39.658Z,12.47
2019-06-26T18:04:08.218Z,11.83
2019-06-26T18:10:07.015Z,14.05
2019-06-26T18:12:35.474Z,12.45
2019-06-26T18:15:06.222Z,13.85
2019-06-26T18:17:34.797Z,10.43
2019-06-26T18:20:04.728Z,13.15
2019-06-26T18:22:33.181Z,11.73
2019-06-26T18:25:01.638Z,10.30
2019-06-26T18:27:30.096Z,10.90
2019-06-26T18:29:58.616Z,11.33
2019-06-26T18:32:27.133Z,9.60
2019-06-26T18:34:55.603Z,9.68
2019-06-26T18:37:24.122Z,11.00
2019-06-26T18:39:52.542Z,10.78
2019-06-26T18:42:20.977Z,10.53
2019-06-26T18:44:49.436Z,11.03
2019-06-26T18:47:17.849Z,8.43
2019-06-26T18:49:46.295Z,11.12
2019-06-26T18:52:15.895Z,10.25
2019-06-26T18:54:44.362Z,10.03
2019-06-26T18:57:12.780Z,10.72
2019-06-26T18:59:42.291Z,12.70
2019-06-26T19:02:10.889Z,10.93
2019-06-26T19:04:39.333Z,9.30
2019-06-26T19:07:07.759Z,11.33
2019-06-26T19:09:36.210Z,12.80
2019-06-26T19:12:04.704Z,12.58
2019-06-26T19:14:33.151Z,11.93
2019-06-26T19:17:01.580Z,11.45
2019-06-26T19:19:30.032Z,10.43
2019-06-26T19:21:58.454Z,10.60
2019-06-26T19:24:26.892Z,9.95
2019-06-26T19:26:55.343Z,16.87
2019-06-26T19:29:23.821Z,10.80
2019-06-26T19:31:52.269Z,11.45
2019-06-26T19:34:20.687Z,12.50
2019-06-26T19:36:50.646Z,12.05
2019-06-26T19:39:20.873Z,13.45
2019-06-26T19:41:49.576Z,13.55
2019-06-26T19:44:18.032Z,12.60
2019-06-26T19:46:46.456Z,11.83
2019-06-26T19:49:14.913Z,12.82
2019-06-26T19:51:43.365Z,13.32
2019-06-26T19:54:25.951Z,13.80
2019-06-26T19:56:41.960Z,11.75
2019-06-26T19:59:10.413Z,10.30
2019-06-26T20:01:38.921Z,13.68
2019-06-26T20:04:07.332Z,15.28
2019-06-26T20:06:35.783Z,11.88
2019-06-26T20:09:06.353Z,11.88
2019-06-26T20:11:34.799Z,15.85
2019-06-26T20:14:03.384Z,12.35
2019-06-26T20:16:31.843Z,11.68
2019-06-26T20:19:00.267Z,13.60
2019-06-26T20:21:29.055Z,12.23
2019-06-26T20:23:57.512Z,13.58
2019-06-26T20:26:25.972Z,11.43
2019-06-26T20:28:54.648Z,14.00
2019-06-26T20:31:23.099Z,12.33
2019-06-26T20:33:51.548Z,12.98
2019-06-26T20:36:20.154Z,12.70
2019-06-26T20:42:17.496Z,12.73
2019-06-26T20:44:45.923Z,15.50
2019-06-26T20:47:14.448Z,15.28
2019-06-26T20:49:52.766Z,13.98
2019-06-26T20:52:13.059Z,14.58
2019-06-26T20:54:41.502Z,12.63
2019-06-26T20:57:09.962Z,12.40
2019-06-26T20:59:38.386Z,15.25
2019-06-26T21:02:07.137Z,12.15
2019-06-26T21:04:35.568Z,15.28
2019-06-26T21:07:03.994Z,12.82
2019-06-26T21:13:01.600Z,10.08
2019-06-26T21:15:30.029Z,10.50
2019-06-26T21:17:58.474Z,9.23
2019-06-26T21:20:26.940Z,9.78
2019-06-26T21:22:55.382Z,9.35
2019-06-26T21:25:23.832Z,10.18
2019-06-26T21:27:52.256Z,8.60
2019-06-26T21:30:21.212Z,13.80
2019-06-26T21:32:49.634Z,12.60
2019-06-26T21:35:18.385Z,13.08
2019-06-26T21:37:46.918Z,11.18
2019-06-26T21:40:15.417Z,11.10
2019-06-26T21:42:43.876Z,10.30
2019-06-26T21:45:12.741Z,13.78
2019-06-26T21:47:41.188Z,12.43
2019-06-26T21:50:09.780Z,11.68
2019-06-26T21:52:38.196Z,13.88
2019-06-26T21:55:06.932Z,10.85
2019-06-26T21:57:35.386Z,10.93
2019-06-26T22:00:06.724Z,14.13
2019-06-26T22:02:35.215Z,10.98
2019-06-26T22:05:05.306Z,12.15
2019-06-26T22:07:33.725Z,11.93
2019-06-26T22:10:02.352Z,12.40
2019-06-26T22:12:30.825Z,13.60
2019-06-26T22:14:59.247Z,9.88
2019-06-26T22:20:56.720Z,11.33
2019-06-26T22:23:25.172Z,13.18
2019-06-26T22:25:53.596Z,11.68
2019-06-26T22:28:22.059Z,14.13
2019-06-26T22:30:50.558Z,14.53
2019-06-26T22:33:19.177Z,12.80
2019-06-26T22:35:47.615Z,13.10
2019-06-26T22:38:16.044Z,10.93
2019-06-26T22:40:44.501Z,13.78
2019-06-26T22:43:12.923Z,16.10
2019-06-26T22:45:41.846Z,14.65
2019-06-26T22:48:10.332Z,14.83
2019-06-26T22:50:38.786Z,12.75
2019-06-26T22:53:07.255Z,17.10
2019-06-26T22:55:35.746Z,14.73
2019-06-26T22:58:04.174Z,13.05
2019-06-26T23:00:32.709Z,13.38
2019-06-26T23:03:01.201Z,14.38
2019-06-26T23:05:29.698Z,14.35
2019-06-26T23:07:58.138Z,14.53
2019-06-26T23:10:26.766Z,14.73
2019-06-26T23:12:55.469Z,18.77
2019-06-26T23:15:23.932Z,17.30
2019-06-26T23:17:52.527Z,13.40
2019-06-26T23:20:21.402Z,14.23
2019-06-26T23:22:50.200Z,18.40
2019-06-26T23:25:18.783Z,16.60
2019-06-26T23:27:47.333Z,15.50
2019-06-26T23:30:19.510Z,14.80
2019-06-26T23:32:48.024Z,13.93
2019-06-26T23:35:16.725Z,15.88
2019-06-26T23:37:45.155Z,17.75
2019-06-26T23:40:13.724Z,17.15
2019-06-26T23:42:42.190Z,14.68
2019-06-26T23:45:11.489Z,16.75
2019-06-26T23:47:40.018Z,16.55
2019-06-26T23:50:08.813Z,16.30
2019-06-26T23:52:37.241Z,20.88
2019-06-26T23:55:06.832Z,18.35
2019-06-26T23:57:35.273Z,16.57
